Maripa, Brazil
Current Conditions -  °F | °C
As of 10:00 AM on Thursday 27 Nov 2014 (Local Time) from SBCA Reporting Station
Scattered Clouds Scattered Clouds  
Wind Chill: 79°   Ceiling: Unl
Heat Index: 81°   Visibility: 6mi
Dew Point: 66°   Wind: 12mph
Humidity: 65%   Direction: 30°NNE
Pressure: 29.97"   Gusts: NA
Location:  24.42°S, 53.83°W
Report Text: SBCA 271200Z 03010KT 9999 FEW040 SCT070 26/19 Q1015
Loading
Personal Weather Stations






























Interactive Weather Map New forecast layout! Learn more

10-Day Weather Forecast

Advertisements
Track Severe Weather on mobile